Nearby METAR Reports

 

KRYN - Tucson/Ryan Fld, Arizona, USA
Distance from station: SSW 16mi, 26km
Updated: Mon, 09-Dec-2019 11:45am MST
Mostly cloudy
Mostly cloudy
 Wind from N
Wind: N 6 mph , 9 km/h
Temperature: 52°F , 11°C
Dew Point: 50°F , 10°C
Humidity: 94%
Barometer: 29.97 inHg , 1014.9 hPa
Clouds: Mostly cloudy
Visibility: 10 miles , 16 km
Cloud details: Few Clouds 1700 ft
Partly cloudy 2300 ft
Mostly cloudy 3100 ft
2019/12/09 18:45 KRYN 091845Z 36005KT 10SM FEW017 SCT023 BKN031 11/10 A2997
KTUS - Tucson, Arizona, USA
Distance from station: SSE 18mi, 28km
Updated: Mon, 09-Dec-2019 11:53am MST
Rain, Mist, Overcast
Rain, Mist, Overcast
 Wind from NNW
Wind: NNW 13 mph , 20 km/h, Gust: 23 mph , 37 km/h
Temperature: 52°F , 11°C
Dew Point: 48°F , 9°C
Humidity: 88%
Barometer: 29.95 inHg , 1014.2 hPa
Summary: Rain, Mist
Clouds: Overcast
Visibility: 3 miles , 5 km
Cloud details: Few Clouds 900 ft
Mostly cloudy 4300 ft
Overcast 5500 ft
2019/12/09 18:53 KTUS 091853Z 33011G20KT 3SM RA BR FEW009 BKN043 OVC055 11/09 A2995 RMK AO2 LTG DSNT NE-S RAB25 SLP123 P0007 T01060089
 
KDMA - Davis/Tucson, Arizona, USA
Distance from station: SE 18mi, 29km
Updated: Mon, 09-Dec-2019 7:58am MST
NOT Current
Few Clouds
Few Clouds
 Wind from ENE
Wind: ENE 6 mph , 9 km/h
Temperature: 52°F , 11°C
Dew Point: 48°F , 9°C
Humidity: 88%
Barometer: 29.94 inHg , 1013.9 hPa
Clouds: Few Clouds
Visibility: 10 miles , 16 km
Cloud details: Few Clouds 7500 ft
2019/12/09 14:58 KDMA 091458Z AUTO 06005KT 10SM FEW075 11/09 A2994 RMK AO2 DZB12E22 SLP120 P0000 60015 T01090093 53007 $
KCGZ - Casa Granda, Arizona, USA
Distance from station: NW 57mi, 92km
Updated: Mon, 09-Dec-2019 12:16pm MST
Haze, Overcast
Haze, Overcast
 Wind from calm
Wind: Calm
Temperature: 59°F , 15°C
Dew Point: 54°F , 12°C
Humidity: 82%
Barometer: 29.94 inHg , 1013.9 hPa
Summary: Haze
Clouds: Overcast
Visibility: 5 miles , 8 km
Cloud details: Partly cloudy 700 ft
Mostly cloudy 2600 ft
Overcast 9500 ft
2019/12/09 19:16 KCGZ 091916Z AUTO 00000KT 5SM HZ SCT007 BKN026 OVC095 15/12 A2994 RMK AO2
 
KALK - Pioneer Airfield, Arizona, USA
Distance from station: SE 65mi, 104km
Updated: Mon, 09-Dec-2019 11:56am MST
Mostly cloudy
Mostly cloudy
 Wind from SSW
Wind: SSW 10 mph , 17 km/h
Temperature: 55°F , 13°C
Dew Point: 39°F , 4°C
Humidity: 55%
Barometer: 29.96 inHg , 1014.6 hPa
Clouds: Mostly cloudy
Visibility: 10 miles , 16 km
Cloud details: Few Clouds 4000 ft
Partly cloudy 5000 ft
Mostly cloudy 6500 ft
2019/12/09 18:56 KALK 091856Z AUTO 20009KT 10SM FEW040 SCT050 BKN065 13/04 A2996 RMK AO2 PK WND 17028/1837 SLP089 T01280039
KOLS - Nogales, Arizona, USA
Distance from station: S 67mi, 108km
Updated: Mon, 09-Dec-2019 11:54am MST
Overcast
Overcast
 Wind from SSW
Wind: SSW 14 mph , 22 km/h, Gust: 24 mph , 39 km/h
Temperature: 59°F , 15°C
Dew Point: 43°F , 6°C
Humidity: 55%
Barometer: 29.93 inHg , 1013.5 hPa
Clouds: Overcast
Visibility: 10 miles , 16 km
Cloud details: Mostly cloudy 3700 ft
Overcast 4800 ft
2019/12/09 18:54 KOLS 091854Z AUTO 20012G21KT 10SM BKN037 OVC048 15/06 A2993 RMK AO2 LTG DSNT SW-N SLP097 T01500056
 
KFHU - Fort Huachuca, Arizona, USA
Distance from station: SE 69mi, 110km
Updated: Mon, 09-Dec-2019 8:09am MST
NOT Current
Mostly cloudy
Mostly cloudy
 Wind from NNW
Wind: NNW 5 mph , 7 km/h
Temperature: 45°F , 7°C
Wind Chill: 42°F , 6°C
Dew Point: 45°F , 7°C
Humidity: 100%
Barometer: 30.01 inHg , 1016.3 hPa
Clouds: Mostly cloudy
Visibility: 9 miles , 14 km
Cloud details: Partly cloudy 15000 ft
Mostly cloudy 17000 ft
Mostly cloudy 21000 ft
2019/12/09 15:09 KFHU 091509Z 33004KT 9SM SCT150 BKN170 BKN210 07/07 A3001 RMK AO2A PRESRR SLP135
KIWA - Chandler/Mesa, Arizona, USA
Distance from station: NNW 73mi, 117km
Updated: Mon, 09-Dec-2019 11:55am MST
Mostly cloudy
Mostly cloudy
 Wind from calm
Wind: Calm
Temperature: 59°F , 15°C
Dew Point: 54°F , 12°C
Humidity: 82%
Barometer: 29.94 inHg , 1013.9 hPa
Clouds: Mostly cloudy
Visibility: 10 miles , 16 km
Cloud details: Partly cloudy 5000 ft
Mostly cloudy 12000 ft
2019/12/09 18:55 KIWA 091855Z 00000KT 10SM SCT050 BKN120 15/12 A2994